createdAt,value
2022-08-17T00:02:25.887Z,15.95
2022-08-17T00:04:55.348Z,14.75
2022-08-17T00:07:23.595Z,13.30
2022-08-17T00:09:51.040Z,15.65
2022-08-17T00:12:43.339Z,14.05
2022-08-17T00:15:13.071Z,14.02
2022-08-17T00:17:46.316Z,12.73
2022-08-17T00:20:14.421Z,11.38
2022-08-17T00:22:43.550Z,12.85
2022-08-17T00:25:16.797Z,11.38
2022-08-17T00:27:46.980Z,16.25
2022-08-17T00:30:14.970Z,17.52
2022-08-17T00:33:11.932Z,13.52
2022-08-17T00:35:35.067Z,12.23
2022-08-17T00:38:10.006Z,12.50
2022-08-17T00:40:44.942Z,14.00
2022-08-17T00:43:20.468Z,16.23
2022-08-17T00:45:53.013Z,12.50
2022-08-17T00:48:30.146Z,12.82
2022-08-17T00:51:11.895Z,13.55
2022-08-17T00:53:44.513Z,13.55
2022-08-17T00:56:21.230Z,15.60
2022-08-17T00:58:54.629Z,15.48
2022-08-17T01:01:23.816Z,15.93
2022-08-17T01:03:57.044Z,12.07
2022-08-17T01:06:28.436Z,16.13
2022-08-17T01:08:58.010Z,16.17
2022-08-17T01:11:28.842Z,16.13
2022-08-17T01:13:56.284Z,19.70
2022-08-17T01:16:30.613Z,17.38
2022-08-17T01:19:04.949Z,14.85
2022-08-17T01:22:08.519Z,16.92
2022-08-17T01:24:37.381Z,15.27
2022-08-17T01:27:10.718Z,17.65
2022-08-17T01:29:41.169Z,19.40
2022-08-17T01:32:09.132Z,16.77
2022-08-17T01:34:43.679Z,20.45
2022-08-17T01:37:19.052Z,17.52
2022-08-17T01:39:52.482Z,14.85
2022-08-17T01:42:38.705Z,16.33
2022-08-17T01:45:17.769Z,16.38
2022-08-17T01:47:50.791Z,15.93
2022-08-17T01:50:22.805Z,18.05
2022-08-17T01:52:54.384Z,15.27
2022-08-17T01:55:27.515Z,18.40
2022-08-17T01:57:55.362Z,23.58
2022-08-17T02:00:22.978Z,16.70
2022-08-17T02:02:51.456Z,15.40
2022-08-17T02:05:22.550Z,17.42
2022-08-17T02:07:59.675Z,17.27
2022-08-17T02:10:34.180Z,21.35
2022-08-17T02:13:03.935Z,18.23
2022-08-17T02:15:32.277Z,18.38
2022-08-17T02:18:05.759Z,14.10
2022-08-17T02:20:42.206Z,13.27
2022-08-17T02:23:12.985Z,16.73
2022-08-17T02:25:43.521Z,17.25
2022-08-17T02:28:11.506Z,19.53
2022-08-17T02:31:01.256Z,16.58
2022-08-17T02:33:42.847Z,19.35
2022-08-17T02:36:18.989Z,12.60
2022-08-17T02:38:50.014Z,13.93
2022-08-17T02:41:17.392Z,17.63
2022-08-17T02:43:45.533Z,17.38
2022-08-17T02:46:13.017Z,16.52
2022-08-17T02:48:42.447Z,23.35
2022-08-17T02:51:09.845Z,17.05
2022-08-17T02:53:37.145Z,19.98
2022-08-17T02:56:09.718Z,15.15
2022-08-17T02:58:40.700Z,17.05
2022-08-17T03:01:13.773Z,19.27
2022-08-17T03:03:45.505Z,19.58
2022-08-17T03:06:12.797Z,22.25
2022-08-17T03:08:43.452Z,19.90
2022-08-17T03:11:10.849Z,32.65
2022-08-17T03:13:38.184Z,26.15
2022-08-17T03:16:14.581Z,32.80
2022-08-17T03:18:44.502Z,18.60
2022-08-17T03:21:11.994Z,21.73
2022-08-17T03:23:41.317Z,21.35
2022-08-17T03:26:15.402Z,26.10
2022-08-17T03:28:43.801Z,27.70
2022-08-17T03:31:14.850Z,24.85
2022-08-17T03:33:42.715Z,28.77
2022-08-17T03:36:10.517Z,28.33
2022-08-17T03:38:41.200Z,27.13
2022-08-17T03:41:11.830Z,31.63
2022-08-17T03:43:42.302Z,22.47
2022-08-17T03:46:35.138Z,25.83
2022-08-17T03:49:25.638Z,28.42
2022-08-17T03:52:13.375Z,31.48
2022-08-17T03:55:01.326Z,26.92
2022-08-17T03:57:29.668Z,27.30
2022-08-17T03:59:57.196Z,26.17
2022-08-17T04:02:32.198Z,30.42
2022-08-17T04:05:02.809Z,26.33
2022-08-17T04:07:31.935Z,26.67
2022-08-17T04:10:00.540Z,25.50
2022-08-17T04:12:32.125Z,27.80
2022-08-17T04:15:09.754Z,33.05
2022-08-17T04:17:41.118Z,33.38
2022-08-17T04:22:36.933Z,32.42
2022-08-17T04:25:17.413Z,39.28
2022-08-17T04:27:48.960Z,32.35
2022-08-17T04:30:16.452Z,34.53
2022-08-17T04:33:05.965Z,33.67
2022-08-17T04:35:52.554Z,37.30
2022-08-17T04:38:22.626Z,32.17
2022-08-17T04:41:12.355Z,31.67
2022-08-17T04:43:41.777Z,35.03
2022-08-17T04:46:19.096Z,30.77
2022-08-17T04:48:49.499Z,33.97
2022-08-17T04:51:32.613Z,28.85
2022-08-17T04:54:06.274Z,28.98
2022-08-17T04:56:34.664Z,27.10
2022-08-17T04:59:05.226Z,27.80
2022-08-17T05:01:34.674Z,23.75
2022-08-17T05:04:20.875Z,28.48
2022-08-17T05:06:55.504Z,27.35
2022-08-17T05:09:28.806Z,25.33
2022-08-17T05:12:02.205Z,25.90
2022-08-17T05:14:33.062Z,23.42
2022-08-17T05:17:04.144Z,22.15
2022-08-17T05:19:40.129Z,20.80
2022-08-17T05:22:07.495Z,18.27
2022-08-17T05:24:42.716Z,19.50
2022-08-17T05:27:21.592Z,18.25
2022-08-17T05:29:57.327Z,16.42
2022-08-17T05:32:38.185Z,15.48
2022-08-17T05:35:09.653Z,19.85
2022-08-17T05:37:36.956Z,18.75
2022-08-17T05:40:04.849Z,17.25
2022-08-17T05:42:37.035Z,14.48
2022-08-17T05:45:05.298Z,17.00
2022-08-17T05:47:32.525Z,14.40
2022-08-17T05:50:01.450Z,16.33
2022-08-17T05:52:35.071Z,15.13
2022-08-17T05:55:21.174Z,15.57
2022-08-17T05:58:09.917Z,17.38
2022-08-17T06:01:07.847Z,20.00
2022-08-17T06:03:56.764Z,14.43
2022-08-17T06:06:32.270Z,16.00
2022-08-17T06:09:25.753Z,15.43
2022-08-17T06:12:23.498Z,13.75
2022-08-17T06:15:02.966Z,16.38
2022-08-17T06:17:31.415Z,12.65
2022-08-17T06:20:04.402Z,13.38
2022-08-17T06:22:43.059Z,10.70
2022-08-17T06:25:18.991Z,11.80
2022-08-17T06:27:59.452Z,10.40
2022-08-17T06:30:59.610Z,9.35
2022-08-17T06:33:29.804Z,9.30
2022-08-17T06:36:25.536Z,10.25
2022-08-17T06:39:33.069Z,11.93
2022-08-17T06:43:04.105Z,10.27
2022-08-17T06:45:59.139Z,11.48
2022-08-17T06:48:41.090Z,8.93
2022-08-17T06:51:23.672Z,11.77
2022-08-17T06:54:20.309Z,10.52
2022-08-17T06:57:25.453Z,10.90
2022-08-17T07:00:05.146Z,14.50
2022-08-17T07:02:55.776Z,8.65
2022-08-17T07:05:51.861Z,8.90
2022-08-17T07:08:40.206Z,16.17
2022-08-17T07:11:18.859Z,11.73
2022-08-17T07:13:54.498Z,12.15
2022-08-17T07:16:46.576Z,9.63
2022-08-17T07:19:17.363Z,11.60
2022-08-17T07:22:20.289Z,10.82
2022-08-17T07:25:09.436Z,11.02
2022-08-17T07:27:45.596Z,15.27
2022-08-17T07:30:26.347Z,11.75
2022-08-17T07:32:58.500Z,10.10
2022-08-17T07:35:58.293Z,10.85
2022-08-17T07:38:34.142Z,11.35
2022-08-17T07:41:03.141Z,15.93
2022-08-17T07:43:33.738Z,11.32
2022-08-17T07:46:37.109Z,8.30
2022-08-17T07:49:08.776Z,8.40
2022-08-17T07:51:50.850Z,8.70
2022-08-17T07:54:28.203Z,9.77
2022-08-17T07:57:08.908Z,12.85
2022-08-17T07:59:38.982Z,12.00
2022-08-17T08:02:17.761Z,9.38
2022-08-17T08:05:30.696Z,9.52
2022-08-17T08:08:29.200Z,9.30
2022-08-17T08:11:10.001Z,9.65
2022-08-17T08:13:45.259Z,12.73
2022-08-17T08:16:27.592Z,9.02
2022-08-17T08:19:02.168Z,8.52
2022-08-17T08:21:48.522Z,11.23
2022-08-17T08:24:36.861Z,11.15
2022-08-17T08:27:48.972Z,10.20
2022-08-17T08:30:21.671Z,9.73
2022-08-17T08:33:38.676Z,12.20
2022-08-17T08:37:15.892Z,9.40
2022-08-17T08:39:26.193Z,13.65
2022-08-17T08:42:08.713Z,12.73
2022-08-17T08:45:10.361Z,9.43
2022-08-17T08:50:54.633Z,11.88
2022-08-17T08:53:44.748Z,9.95
2022-08-17T08:56:36.813Z,10.35
2022-08-17T08:59:23.683Z,11.35
2022-08-17T09:02:25.611Z,12.30
2022-08-17T09:05:18.066Z,12.00
2022-08-17T09:08:03.194Z,9.95
2022-08-17T09:10:52.160Z,8.50
2022-08-17T09:13:55.504Z,7.88
2022-08-17T09:16:41.698Z,9.80
2022-08-17T09:19:23.598Z,9.55
2022-08-17T09:22:17.590Z,9.48
2022-08-17T09:25:05.312Z,9.63
2022-08-17T09:27:46.607Z,9.57
2022-08-17T09:32:50.308Z,6.53
2022-08-17T09:35:25.279Z,8.65
2022-08-17T09:38:32.323Z,9.60
2022-08-17T09:41:28.370Z,7.53
2022-08-17T09:44:22.943Z,6.32
2022-08-17T09:47:34.537Z,7.03
2022-08-17T09:50:13.586Z,8.82
2022-08-17T09:52:43.343Z,7.97
2022-08-17T09:55:13.891Z,8.93
2022-08-17T09:58:28.986Z,6.80
2022-08-17T10:01:40.120Z,5.88
2022-08-17T10:04:32.448Z,5.95
2022-08-17T10:07:10.714Z,8.68
2022-08-17T10:09:49.113Z,7.97
2022-08-17T10:12:30.444Z,7.15
2022-08-17T10:15:22.874Z,6.60
2022-08-17T10:18:07.656Z,6.10
2022-08-17T10:20:45.525Z,6.68
2022-08-17T10:23:37.254Z,6.18
2022-08-17T10:26:13.499Z,8.23
2022-08-17T10:28:44.558Z,7.20
2022-08-17T10:31:36.227Z,7.80
2022-08-17T10:34:22.432Z,8.43
2022-08-17T10:36:56.440Z,7.30
2022-08-17T10:39:30.869Z,6.85
2022-08-17T10:42:01.458Z,7.53
2022-08-17T10:44:48.140Z,7.13
2022-08-17T10:47:19.215Z,7.63
2022-08-17T10:49:54.174Z,7.95
2022-08-17T10:52:26.510Z,9.50
2022-08-17T10:54:58.712Z,8.40
2022-08-17T10:57:32.649Z,6.15
2022-08-17T11:00:08.889Z,6.78
2022-08-17T11:02:42.512Z,6.32
2022-08-17T11:05:27.711Z,7.22
2022-08-17T11:08:43.558Z,7.93
2022-08-17T11:11:51.117Z,8.57
2022-08-17T11:14:55.650Z,7.40
2022-08-17T11:17:41.780Z,12.43
2022-08-17T11:20:32.805Z,7.55
2022-08-17T11:23:42.314Z,6.75
2022-08-17T11:26:41.111Z,6.45
2022-08-17T11:29:24.927Z,7.80
2022-08-17T11:32:15.130Z,7.30
2022-08-17T11:34:44.901Z,6.82
2022-08-17T11:37:32.867Z,6.60
2022-08-17T11:40:19.353Z,6.68
2022-08-17T11:43:01.150Z,5.88
2022-08-17T11:45:38.031Z,5.88
2022-08-17T11:48:34.857Z,6.10
2022-08-17T11:51:29.988Z,8.27
2022-08-17T11:54:21.475Z,6.80
2022-08-17T11:56:50.095Z,6.88
2022-08-17T11:59:33.003Z,16.90
2022-08-17T12:02:06.459Z,7.10
2022-08-17T12:04:35.769Z,5.93
2022-08-17T12:07:14.117Z,10.25
2022-08-17T12:09:45.113Z,6.60
2022-08-17T12:12:16.379Z,7.53
2022-08-17T12:17:40.863Z,6.90
2022-08-17T12:20:21.981Z,8.98
2022-08-17T12:23:20.673Z,9.32
2022-08-17T12:26:14.418Z,6.78
2022-08-17T12:28:47.587Z,8.45
2022-08-17T12:31:31.186Z,7.43
2022-08-17T12:34:00.576Z,7.50
2022-08-17T12:36:29.049Z,7.47
2022-08-17T12:39:12.235Z,8.32
2022-08-17T12:41:52.473Z,6.93
2022-08-17T12:44:32.758Z,10.02
2022-08-17T12:47:07.166Z,7.90
2022-08-17T12:49:37.212Z,8.73
2022-08-17T12:52:26.894Z,7.43
2022-08-17T12:55:07.442Z,6.60
2022-08-17T12:57:47.390Z,8.45
2022-08-17T13:00:25.590Z,7.13
2022-08-17T13:02:59.252Z,7.40
2022-08-17T13:05:28.273Z,7.43
2022-08-17T13:07:57.992Z,6.70
2022-08-17T13:10:33.390Z,6.70
2022-08-17T13:13:06.143Z,6.80
2022-08-17T13:15:44.719Z,7.30
2022-08-17T13:18:31.306Z,7.43
2022-08-17T13:21:04.083Z,7.45
2022-08-17T13:23:32.396Z,7.53
2022-08-17T13:26:07.970Z,8.77
2022-08-17T13:28:36.890Z,7.40
2022-08-17T13:31:28.587Z,9.15
2022-08-17T13:34:16.104Z,9.55
2022-08-17T13:36:46.995Z,9.25
2022-08-17T13:39:25.279Z,7.43
2022-08-17T13:41:56.354Z,8.52
2022-08-17T13:44:39.780Z,6.35
2022-08-17T13:47:18.124Z,8.15
2022-08-17T13:49:49.090Z,8.98
2022-08-17T13:55:19.831Z,6.60
2022-08-17T13:58:06.821Z,9.05
2022-08-17T14:00:36.607Z,9.20
2022-08-17T14:03:05.476Z,10.43
2022-08-17T14:05:34.022Z,7.07
2022-08-17T14:08:06.805Z,8.25
2022-08-17T14:10:36.735Z,6.50
2022-08-17T14:13:09.350Z,6.18
2022-08-17T14:15:55.024Z,7.57
2022-08-17T14:18:31.152Z,6.85
2022-08-17T14:21:12.069Z,7.78
2022-08-17T14:23:39.584Z,6.82
2022-08-17T14:26:06.933Z,7.28
2022-08-17T14:28:36.526Z,9.15
2022-08-17T14:31:05.383Z,11.02
2022-08-17T14:33:33.870Z,7.05
2022-08-17T14:36:01.373Z,8.15
2022-08-17T14:38:29.016Z,8.45
2022-08-17T14:41:00.422Z,7.57
2022-08-17T14:43:27.731Z,8.52
2022-08-17T14:46:00.174Z,8.77
2022-08-17T14:48:29.104Z,7.60
2022-08-17T14:50:59.784Z,7.65
2022-08-17T14:53:27.277Z,7.97
2022-08-17T14:55:55.592Z,7.55
2022-08-17T14:58:23.891Z,7.93
2022-08-17T15:00:52.686Z,7.75
2022-08-17T15:03:23.854Z,10.20
2022-08-17T15:05:54.166Z,7.25
2022-08-17T15:08:21.613Z,8.57
2022-08-17T15:10:54.538Z,6.70
2022-08-17T15:13:26.007Z,7.43
2022-08-17T15:15:54.008Z,9.43
2022-08-17T15:18:21.607Z,7.32
2022-08-17T15:20:53.298Z,7.22
2022-08-17T15:23:26.670Z,6.97
2022-08-17T15:25:55.086Z,7.68
2022-08-17T15:28:23.161Z,7.75
2022-08-17T15:30:55.134Z,7.25
2022-08-17T15:33:30.405Z,6.30
2022-08-17T15:36:03.784Z,7.28
2022-08-17T15:38:34.426Z,6.82
2022-08-17T15:41:07.531Z,7.78
2022-08-17T15:43:36.107Z,8.00
2022-08-17T15:46:15.222Z,8.85
2022-08-17T15:48:51.214Z,9.02
2022-08-17T15:51:26.101Z,8.40
2022-08-17T15:54:04.481Z,11.65
2022-08-17T15:56:50.232Z,9.77
2022-08-17T15:59:24.913Z,8.20
2022-08-17T16:02:29.914Z,8.50
2022-08-17T16:04:44.510Z,7.70
2022-08-17T16:07:17.506Z,9.32
2022-08-17T16:09:45.708Z,7.95
2022-08-17T16:12:19.216Z,6.70
2022-08-17T16:14:49.200Z,10.23
2022-08-17T16:17:39.777Z,7.28
2022-08-17T16:20:06.939Z,9.68
2022-08-17T16:22:41.579Z,8.80
2022-08-17T16:25:12.743Z,8.00
2022-08-17T16:27:43.910Z,7.55
2022-08-17T16:32:51.881Z,7.75
2022-08-17T16:35:22.864Z,9.75
2022-08-17T16:37:57.352Z,8.93
2022-08-17T16:40:27.598Z,9.10
2022-08-17T16:42:55.939Z,8.57
2022-08-17T16:45:28.328Z,8.35
2022-08-17T16:47:59.250Z,10.20
2022-08-17T16:50:30.456Z,8.82
2022-08-17T16:53:10.911Z,8.68
2022-08-17T16:55:43.004Z,9.02
2022-08-17T16:58:10.418Z,9.68
2022-08-17T17:00:38.610Z,8.02
2022-08-17T17:03:19.955Z,8.05
2022-08-17T17:06:13.831Z,9.45
2022-08-17T17:08:55.636Z,7.13
2022-08-17T17:11:35.557Z,7.35
2022-08-17T17:14:07.365Z,7.90
2022-08-17T17:16:45.745Z,8.32
2022-08-17T17:19:52.914Z,8.02
2022-08-17T17:22:23.542Z,9.48
2022-08-17T17:25:12.084Z,6.25
2022-08-17T17:27:59.008Z,8.32
2022-08-17T17:30:39.077Z,9.18
2022-08-17T17:33:11.694Z,7.30
2022-08-17T17:35:51.916Z,10.45
2022-08-17T17:38:28.982Z,8.10
2022-08-17T17:41:08.794Z,6.78
2022-08-17T17:43:41.647Z,7.40
2022-08-17T17:46:27.386Z,7.88
2022-08-17T17:48:57.750Z,7.38
2022-08-17T17:52:06.525Z,6.68
2022-08-17T17:54:58.255Z,8.55
2022-08-17T17:57:44.313Z,7.63
2022-08-17T18:00:22.321Z,7.38
2022-08-17T18:03:01.626Z,9.80
2022-08-17T18:05:39.032Z,8.40
2022-08-17T18:08:40.545Z,8.20
2022-08-17T18:11:24.953Z,8.07
2022-08-17T18:14:17.464Z,9.38
2022-08-17T18:16:58.428Z,7.85
2022-08-17T18:19:32.545Z,8.95
2022-08-17T18:22:14.109Z,9.95
2022-08-17T18:24:48.014Z,8.30
2022-08-17T18:27:37.934Z,8.40
2022-08-17T18:30:30.053Z,7.78
2022-08-17T18:33:26.699Z,8.57
2022-08-17T18:36:01.688Z,8.27
2022-08-17T18:38:48.031Z,11.20
2022-08-17T18:41:30.637Z,9.20
2022-08-17T18:44:19.539Z,8.15
2022-08-17T18:47:13.938Z,8.20
2022-08-17T18:49:43.379Z,9.88
2022-08-17T18:52:28.620Z,8.25
2022-08-17T18:55:05.118Z,7.90
2022-08-17T18:57:43.591Z,7.50
2022-08-17T19:00:26.942Z,9.07
2022-08-17T19:03:01.324Z,8.25
2022-08-17T19:05:41.241Z,8.68
2022-08-17T19:08:30.071Z,8.82
2022-08-17T19:11:31.998Z,11.57
2022-08-17T19:14:17.066Z,10.27
2022-08-17T19:17:06.375Z,9.52
2022-08-17T19:19:53.611Z,9.93
2022-08-17T19:22:42.260Z,8.30
2022-08-17T19:25:21.835Z,10.20
2022-08-17T19:27:57.702Z,11.20
2022-08-17T19:30:35.859Z,11.35
2022-08-17T19:33:08.929Z,11.30
2022-08-17T19:35:59.569Z,9.80
2022-08-17T19:38:53.606Z,10.73
2022-08-17T19:41:33.307Z,11.05
2022-08-17T19:44:27.344Z,11.15
2022-08-17T19:47:30.726Z,10.60
2022-08-17T19:50:21.392Z,10.05
2022-08-17T19:53:07.609Z,8.38
2022-08-17T19:56:20.311Z,9.68
2022-08-17T19:59:08.379Z,11.40
2022-08-17T20:01:44.566Z,10.25
2022-08-17T20:04:43.742Z,9.50
2022-08-17T20:07:45.072Z,10.00
2022-08-17T20:10:30.749Z,8.82
2022-08-17T20:13:05.525Z,9.55
2022-08-17T20:15:39.136Z,11.35
2022-08-17T20:18:44.077Z,9.10
2022-08-17T20:21:29.382Z,9.95
2022-08-17T20:24:18.195Z,9.88
2022-08-17T20:27:13.948Z,13.93
2022-08-17T20:30:04.378Z,9.52
2022-08-17T20:32:56.432Z,11.57
2022-08-17T20:35:34.233Z,9.60
2022-08-17T20:38:43.411Z,9.45
2022-08-17T20:41:22.474Z,12.57
2022-08-17T20:43:59.459Z,10.82
2022-08-17T20:47:13.217Z,11.65
2022-08-17T20:49:45.145Z,10.80
2022-08-17T20:52:42.629Z,12.63
2022-08-17T20:55:52.294Z,12.45
2022-08-17T20:58:32.258Z,12.57
2022-08-17T21:01:26.459Z,11.80
2022-08-17T21:04:03.410Z,12.88
2022-08-17T21:06:34.157Z,12.30
2022-08-17T21:09:13.584Z,12.35
2022-08-17T21:12:03.924Z,14.88
2022-08-17T21:14:51.167Z,15.93
2022-08-17T21:17:56.617Z,12.23
2022-08-17T21:21:17.275Z,14.43
2022-08-17T21:24:29.193Z,19.83
2022-08-17T21:27:18.201Z,13.15
2022-08-17T21:30:21.124Z,11.35
2022-08-17T21:33:14.605Z,13.63
2022-08-17T21:36:12.887Z,12.27
2022-08-17T21:38:58.574Z,10.82
2022-08-17T21:41:35.015Z,14.15
2022-08-17T21:44:33.150Z,13.25
2022-08-17T21:47:26.376Z,11.55
2022-08-17T21:49:55.186Z,10.88
2022-08-17T21:52:34.270Z,12.93
2022-08-17T21:55:03.338Z,10.85
2022-08-17T21:57:38.625Z,13.30
2022-08-17T22:00:17.142Z,11.77
2022-08-17T22:03:01.337Z,11.88
2022-08-17T22:05:40.522Z,12.43
2022-08-17T22:08:22.053Z,13.15
2022-08-17T22:13:29.679Z,13.82
2022-08-17T22:16:15.533Z,17.42
2022-08-17T22:19:07.622Z,14.52
2022-08-17T22:21:39.220Z,13.25
2022-08-17T22:24:24.903Z,14.85
2022-08-17T22:27:13.133Z,12.25
2022-08-17T22:30:33.423Z,13.43
2022-08-17T22:33:33.489Z,13.43
2022-08-17T22:36:25.593Z,14.15
2022-08-17T22:39:28.482Z,17.23
2022-08-17T22:42:02.592Z,11.73
2022-08-17T22:44:48.203Z,13.68
2022-08-17T22:47:22.903Z,12.02
2022-08-17T22:49:58.006Z,12.60
2022-08-17T22:53:01.910Z,11.82
2022-08-17T22:55:52.234Z,12.20
2022-08-17T22:58:42.778Z,15.45
2022-08-17T23:01:35.813Z,11.73
2022-08-17T23:04:12.678Z,12.38
2022-08-17T23:06:44.098Z,11.90
2022-08-17T23:11:53.650Z,11.87
2022-08-17T23:14:32.583Z,13.98
2022-08-17T23:17:03.475Z,14.57
2022-08-17T23:19:38.027Z,13.65
2022-08-17T23:22:10.607Z,12.52
2022-08-17T23:24:48.726Z,14.93
2022-08-17T23:27:20.704Z,13.32
2022-08-17T23:29:50.730Z,13.10
2022-08-17T23:32:34.607Z,12.32
2022-08-17T23:35:07.184Z,12.43
2022-08-17T23:37:41.983Z,11.45
2022-08-17T23:40:15.092Z,13.55
2022-08-17T23:42:46.703Z,11.90
2022-08-17T23:45:22.641Z,12.90
2022-08-17T23:47:52.998Z,13.93
2022-08-17T23:50:25.455Z,12.77
2022-08-17T23:53:05.738Z,11.60
2022-08-17T23:55:37.561Z,14.35
2022-08-17T23:58:05.632Z,14.15
